createdAt,value
2017-07-04T00:01:04.264Z,-57
2017-07-04T00:11:04.297Z,-57
2017-07-04T00:21:04.305Z,-57
2017-07-04T00:31:05.165Z,-55
2017-07-04T00:41:04.347Z,-57
2017-07-04T00:51:04.462Z,-58
2017-07-04T01:01:04.260Z,-57
2017-07-04T01:11:04.413Z,-57
2017-07-04T01:21:04.380Z,-58
2017-07-04T01:31:04.412Z,-58
2017-07-04T01:41:04.305Z,-56
2017-07-04T01:51:04.281Z,-59
2017-07-04T02:01:04.358Z,-58
2017-07-04T02:11:04.383Z,-56
2017-07-04T02:21:04.361Z,-58
2017-07-04T02:31:04.412Z,-57
2017-07-04T02:41:04.547Z,-58
2017-07-04T02:51:04.399Z,-58
2017-07-04T03:01:04.574Z,-58
2017-07-04T03:11:04.381Z,-57
2017-07-04T03:21:04.995Z,-58
2017-07-04T03:31:04.361Z,-56
2017-07-04T03:41:04.548Z,-57
2017-07-04T03:51:04.460Z,-57
2017-07-04T04:01:05.245Z,-58
2017-07-04T04:11:04.525Z,-57
2017-07-04T04:21:04.420Z,-58
2017-07-04T04:31:04.517Z,-56
2017-07-04T04:41:04.699Z,-58
2017-07-04T04:51:04.575Z,-58
2017-07-04T05:01:05.670Z,-58
2017-07-04T05:11:04.841Z,-58
2017-07-04T05:21:04.575Z,-56
2017-07-04T05:31:04.735Z,-58
2017-07-04T05:41:04.844Z,-57
2017-07-04T05:51:04.625Z,-58
2017-07-04T06:01:04.624Z,-58
2017-07-04T06:11:04.662Z,-59
2017-07-04T06:21:04.720Z,-60
2017-07-04T06:31:04.709Z,-60
2017-07-04T06:41:04.671Z,-61
2017-07-04T06:51:04.597Z,-58
2017-07-04T07:01:04.603Z,-60
2017-07-04T07:11:04.675Z,-58
2017-07-04T07:21:04.573Z,-61
2017-07-04T07:31:04.724Z,-60
2017-07-04T07:41:04.642Z,-60
2017-07-04T07:51:04.764Z,-60
2017-07-04T08:01:04.698Z,-61
2017-07-04T08:11:04.695Z,-61
2017-07-04T08:21:04.843Z,-63
2017-07-04T08:31:04.675Z,-61
2017-07-04T08:41:04.685Z,-60
2017-07-04T08:51:04.686Z,-61
2017-07-04T09:01:04.739Z,-61
2017-07-04T09:11:04.729Z,-61
2017-07-04T09:21:04.695Z,-61
2017-07-04T09:31:04.687Z,-60
2017-07-04T09:41:04.748Z,-59
2017-07-04T09:51:05.040Z,-59
2017-07-04T10:01:05.550Z,-61
2017-07-04T10:11:04.772Z,-62
2017-07-04T10:21:04.709Z,-61
2017-07-04T10:31:05.290Z,-62
2017-07-04T10:41:05.067Z,-61
2017-07-04T10:51:04.744Z,-61
2017-07-04T11:01:05.308Z,-62
2017-07-04T11:11:04.992Z,-60
2017-07-04T11:21:04.707Z,-61
2017-07-04T11:31:04.705Z,-59
2017-07-04T11:41:04.740Z,-58
2017-07-04T11:51:04.853Z,-59
2017-07-04T12:01:05.000Z,-58
2017-07-04T12:11:04.891Z,-60
2017-07-04T12:21:04.705Z,-59
2017-07-04T12:31:04.714Z,-61
2017-07-04T12:41:04.736Z,-61
2017-07-04T12:51:04.808Z,-58
2017-07-04T13:01:05.028Z,-59
2017-07-04T13:11:04.906Z,-61
2017-07-04T13:21:05.827Z,-58
2017-07-04T13:31:04.971Z,-58
2017-07-04T13:41:04.988Z,-58
2017-07-04T13:51:04.815Z,-59
2017-07-04T14:01:04.776Z,-59
2017-07-04T14:11:05.105Z,-57
2017-07-04T14:21:04.995Z,-59
2017-07-04T14:31:04.760Z,-57
2017-07-04T14:41:04.782Z,-60
2017-07-04T14:51:04.817Z,-59
2017-07-04T15:01:04.958Z,-59
2017-07-04T15:11:04.824Z,-57
2017-07-04T15:21:04.774Z,-59
2017-07-04T15:31:04.841Z,-59
2017-07-04T15:41:04.778Z,-59
2017-07-04T15:51:04.859Z,-59
2017-07-04T16:01:04.753Z,-57
2017-07-04T16:11:04.771Z,-59
2017-07-04T16:21:04.819Z,-60
2017-07-04T16:31:04.846Z,-58
2017-07-04T16:41:04.834Z,-59
2017-07-04T16:51:04.814Z,-59
2017-07-04T17:01:04.841Z,-59
2017-07-04T17:11:04.789Z,-59
2017-07-04T17:21:04.840Z,-59
2017-07-04T17:31:04.854Z,-58
2017-07-04T17:41:04.886Z,-59
2017-07-04T17:51:04.789Z,-58
2017-07-04T18:01:04.933Z,-58
2017-07-04T18:11:04.901Z,-59
2017-07-04T18:21:05.299Z,-59
2017-07-04T18:31:05.271Z,-60
2017-07-04T18:41:04.968Z,-58
2017-07-04T18:51:04.878Z,-60
2017-07-04T19:01:06.830Z,-60
2017-07-04T19:11:04.824Z,-57
2017-07-04T19:21:04.804Z,-60
2017-07-04T19:31:04.853Z,-59
2017-07-04T19:41:05.370Z,-59
2017-07-04T19:51:04.939Z,-59
2017-07-04T20:01:05.921Z,-59
2017-07-04T20:11:05.121Z,-57
2017-07-04T20:21:04.967Z,-59
2017-07-04T20:31:05.046Z,-59
2017-07-04T20:41:05.269Z,-59
2017-07-04T20:51:04.843Z,-59
2017-07-04T21:01:05.293Z,-59
2017-07-04T21:11:05.208Z,-59
2017-07-04T21:21:04.821Z,-59
2017-07-04T21:31:04.903Z,-59
2017-07-04T21:41:04.891Z,-57
2017-07-04T21:51:04.964Z,-59
2017-07-04T22:01:04.940Z,-59
2017-07-04T22:11:04.977Z,-58
2017-07-04T22:21:05.041Z,-59
2017-07-04T22:31:05.029Z,-59
2017-07-04T22:41:04.843Z,-58
2017-07-04T22:51:04.897Z,-59
2017-07-04T23:01:05.556Z,-58
2017-07-04T23:11:05.041Z,-55
2017-07-04T23:21:05.859Z,-54
2017-07-04T23:31:04.983Z,-54
2017-07-04T23:41:04.862Z,-54
2017-07-04T23:51:05.021Z,-55
